Time;durP1;ratioP1;P1;durP2;ratioP2;P2;SDS_P1;SDS_P2;PMS_P1;PMS_P2;Temp;Humidity;BMP_temperature;BMP_pressure;BME280_temperature;BME280_humidity;BME280_pressure;Samples;Min_cycle;Max_cycle;Signal;HPM_P1;HPM_P2
2022/03/23 00:01:25;;;;;;;229.60;133.40;;;;;;;0.44;71.92;100648.30;105090;1268;61344;-71
2022/03/23 00:03:52;;;;;;;231.80;128.40;;;;;;;0.47;72.43;100644.28;104920;1268;61256;-70
2022/03/23 00:06:18;;;;;;;227.90;128.60;;;;;;;0.49;72.61;100646.02;104927;1268;70270;-69
2022/03/23 00:08:45;;;;;;;225.00;131.60;;;;;;;0.53;72.98;100651.11;104909;1268;61306;-70
2022/03/23 00:11:12;;;;;;;236.60;138.00;;;;;;;0.56;72.82;100642.71;104908;1268;61370;-70
2022/03/23 00:13:39;;;;;;;234.40;136.90;;;;;;;0.57;72.86;100642.01;104991;1271;61285;-70
2022/03/23 00:16:06;;;;;;;243.30;135.40;;;;;;;0.60;73.07;100640.25;104928;1268;61328;-70
2022/03/23 00:18:32;;;;;;;213.00;124.80;;;;;;;0.63;73.35;100633.44;104966;1268;70753;-70
2022/03/23 00:20:59;;;;;;;188.80;115.20;;;;;;;0.68;73.97;100633.97;105180;1268;61279;-70
2022/03/23 00:23:26;;;;;;;181.00;112.10;;;;;;;0.77;74.13;100632.03;105254;1268;61233;-71
2022/03/23 00:25:52;;;;;;;196.60;119.20;;;;;;;0.83;73.72;100628.53;105216;1271;61393;-71
2022/03/23 00:28:21;;;;;;;195.50;119.60;;;;;;;0.79;73.01;100628.54;105272;1268;75330;-70
2022/03/23 00:30:49;;;;;;;193.80;117.30;;;;;;;0.67;72.79;100621.72;105084;1268;69330;-70
2022/03/23 00:33:16;;;;;;;181.40;115.10;;;;;;;0.53;72.55;100619.45;104955;1268;73728;-70
2022/03/23 00:35:43;;;;;;;184.40;115.00;;;;;;;0.44;73.30;100619.10;105090;1268;61246;-71
2022/03/23 00:38:09;;;;;;;178.80;109.40;;;;;;;0.37;73.23;100610.70;104823;1269;62090;-71
2022/03/23 00:40:38;;;;;;;172.30;106.40;;;;;;;0.32;73.41;100608.42;105019;1268;75528;-71
2022/03/23 00:43:04;;;;;;;165.50;105.20;;;;;;;0.33;73.75;100600.56;104983;1268;70502;-71
2022/03/23 00:45:31;;;;;;;161.30;102.90;;;;;;;0.35;73.94;100599.17;104609;1269;61285;-69
2022/03/23 00:47:57;;;;;;;170.90;107.70;;;;;;;0.35;73.91;100595.48;104959;1268;62013;-70
2022/03/23 00:50:24;;;;;;;176.20;109.20;;;;;;;0.37;74.35;100592.34;104910;1268;61349;-70
2022/03/23 00:52:51;;;;;;;182.20;115.10;;;;;;;0.37;74.28;100592.35;104970;1268;74956;-69
2022/03/23 00:55:18;;;;;;;186.50;114.90;;;;;;;0.36;74.53;100594.27;104741;1268;236488;-70
2022/03/23 00:57:45;;;;;;;197.20;119.30;;;;;;;0.32;74.40;100599.52;104918;1268;74476;-70
2022/03/23 01:00:16;;;;;;;220.00;135.30;;;;;;;0.27;74.20;100602.13;105028;1268;61326;-71
2022/03/23 01:02:45;;;;;;;224.80;137.10;;;;;;;0.20;74.28;100600.90;105031;1268;61162;-70
2022/03/23 01:05:13;;;;;;;220.10;137.60;;;;;;;0.13;74.35;100598.45;105138;1268;75365;-69
2022/03/23 01:07:40;;;;;;;217.00;132.40;;;;;;;0.04;74.42;100596.69;104931;1268;70100;-70
2022/03/23 01:10:13;;;;;;;201.50;127.10;;;;;;;-0.04;74.89;100594.58;103458;1268;1003587;-70
2022/03/23 01:12:40;;;;;;;207.10;124.20;;;;;;;-0.04;75.30;100590.21;105199;1268;61335;-70
2022/03/23 01:15:09;;;;;;;181.30;118.90;;;;;;;-0.06;75.17;100586.53;104974;1268;62157;-70
2022/03/23 01:17:37;;;;;;;170.30;108.80;;;;;;;-0.13;74.72;100592.98;105096;1268;76485;-70
2022/03/23 01:20:06;;;;;;;166.20;107.70;;;;;;;-0.21;74.87;100585.80;105009;1268;70263;-69
2022/03/23 01:22:32;;;;;;;167.40;108.60;;;;;;;-0.25;74.96;100584.75;104898;1268;73989;-70
2022/03/23 01:24:59;;;;;;;180.50;109.30;;;;;;;-0.27;75.27;100581.23;104907;1268;61287;-68
2022/03/23 01:27:25;;;;;;;178.90;114.40;;;;;;;-0.27;75.42;100580.02;104964;1268;61168;-70
2022/03/23 01:29:52;;;;;;;184.70;121.90;;;;;;;-0.27;75.58;100584.39;105041;1268;61319;-70
2022/03/23 01:32:18;;;;;;;193.10;123.90;;;;;;;-0.28;75.91;100584.38;104693;1268;69429;-71
2022/03/23 01:34:45;;;;;;;187.70;120.50;;;;;;;-0.30;76.12;100587.35;105009;1268;61393;-68
2022/03/23 01:37:11;;;;;;;199.80;125.20;;;;;;;-0.33;76.45;100589.77;104913;1268;61434;-70
2022/03/23 01:39:38;;;;;;;219.60;127.30;;;;;;;-0.36;77.14;100589.60;104953;1268;61268;-70
2022/03/23 01:42:04;;;;;;;221.50;134.10;;;;;;;-0.43;77.17;100591.14;104961;1268;76486;-70
2022/03/23 01:44:31;;;;;;;202.70;129.20;;;;;;;-0.48;77.22;100586.60;104912;1268;61375;-72
2022/03/23 01:47:09;;;;;;;197.50;124.00;;;;;;;-0.47;77.47;100585.37;105075;1268;61377;-69
2022/03/23 01:49:42;;;;;;;211.20;130.40;;;;;;;-0.47;77.57;100580.15;104683;1268;61314;-72
2022/03/23 01:52:11;;;;;;;235.70;138.00;;;;;;;-0.44;78.16;100580.84;104961;1268;61828;-70
2022/03/23 01:54:38;;;;;;;231.20;142.80;;;;;;;-0.39;78.35;100578.25;105021;1268;76306;-70
2022/03/23 01:57:06;;;;;;;220.30;133.40;;;;;;;-0.35;78.27;100574.94;104969;1268;70188;-70
2022/03/23 01:59:34;;;;;;;215.80;137.30;;;;;;;-0.35;77.84;100576.85;104966;1268;74900;-70
2022/03/23 02:02:02;;;;;;;238.50;142.50;;;;;;;-0.39;77.82;100576.15;105291;1268;61374;-70
2022/03/23 02:04:28;;;;;;;233.10;143.50;;;;;;;-0.44;77.59;100567.40;105362;1268;62015;-71
2022/03/23 02:06:55;;;;;;;224.20;135.70;;;;;;;-0.51;77.51;100560.58;105282;1268;61176;-71
2022/03/23 02:09:24;;;;;;;208.10;132.30;;;;;;;-0.57;77.41;100556.19;105211;1269;70595;-72
2022/03/23 02:11:52;;;;;;;228.20;134.70;;;;;;;-0.67;77.78;100557.36;105106;1268;74427;-71
2022/03/23 02:14:19;;;;;;;215.40;133.30;;;;;;;-0.79;77.98;100559.42;104954;1268;61243;-69
2022/03/23 02:16:48;;;;;;;215.20;133.70;;;;;;;-0.91;78.22;100567.91;104982;1268;61698;-69
2022/03/23 02:19:15;;;;;;;234.00;140.40;;;;;;;-0.99;78.41;100571.55;104849;1268;74721;-70
2022/03/23 02:21:54;;;;;;;255.60;153.10;;;;;;;-1.03;78.72;100571.49;104937;1268;61368;-70
2022/03/23 02:24:26;;;;;;;262.60;155.70;;;;;;;-1.04;79.14;100567.33;103424;1268;1003767;-71
2022/03/23 02:26:54;;;;;;;250.70;149.90;;;;;;;-1.03;79.07;100564.35;105321;1268;61358;-71
2022/03/23 02:29:24;;;;;;;233.70;138.40;;;;;;;-1.00;79.23;100564.73;105315;1268;61397;-70
2022/03/23 02:31:50;;;;;;;;;;;;;;;-1.00;79.02;100565.77;105312;1271;74705;-73
2022/03/23 02:34:17;;;;;;;219.20;131.00;;;;;;;-1.02;79.05;100567.67;105337;1268;61269;-72
2022/03/23 02:36:44;;;;;;;194.90;120.30;;;;;;;-1.04;78.80;100566.96;105370;1268;61365;-74
2022/03/23 02:39:10;;;;;;;224.20;137.50;;;;;;;-1.07;79.01;100562.06;105181;1268;61263;-72
2022/03/23 02:41:39;;;;;;;228.70;142.10;;;;;;;-1.04;79.44;100558.08;105270;1268;61182;-70
2022/03/23 02:44:06;;;;;;;217.70;134.10;;;;;;;-1.01;79.37;100558.61;105057;1268;76554;-70
2022/03/23 02:46:35;;;;;;;202.10;125.40;;;;;;;-1.01;79.15;100562.09;104959;1268;70400;-72
2022/03/23 02:49:03;;;;;;;207.50;132.40;;;;;;;-1.10;78.72;100563.63;105261;1268;74363;-71
2022/03/23 02:51:30;;;;;;;205.80;130.60;;;;;;;-1.24;78.57;100570.67;104737;1271;61346;-71
2022/03/23 03:03:22;;;;;;;233.50;146.40;;;;;;;-1.66;80.63;100576.33;104969;1268;72310;-71
2022/03/23 03:05:48;;;;;;;221.90;142.70;;;;;;;-1.64;80.89;100578.25;105311;1268;61350;-71
2022/03/23 03:11:01;;;;;;;211.40;135.60;;;;;;;-1.50;81.40;100567.89;105238;1268;75440;-71
2022/03/23 03:13:29;;;;;;;239.20;143.80;;;;;;;-1.45;81.70;100564.45;105225;1268;61387;-70
2022/03/23 03:16:01;;;;;;;234.60;144.20;;;;;;;-1.38;81.79;100567.46;105190;1268;73928;-69
2022/03/23 03:18:31;;;;;;;231.30;149.40;;;;;;;-1.37;81.45;100567.64;104988;1268;61319;-70
2022/03/23 03:21:00;;;;;;;242.60;154.40;;;;;;;-1.38;81.43;100566.77;105458;1268;62228;-69
2022/03/23 03:23:27;;;;;;;237.00;150.70;;;;;;;-1.42;81.16;100567.77;105231;1268;76327;-70
2022/03/23 03:25:53;;;;;;;243.70;147.70;;;;;;;-1.50;81.08;100569.13;105006;1268;61182;-70
2022/03/23 03:28:20;;;;;;;237.90;146.40;;;;;;;-1.56;81.01;100568.38;105246;1268;73255;-70
2022/03/23 03:30:46;;;;;;;240.60;150.20;;;;;;;-1.60;81.14;100566.26;105002;1268;61272;-72
2022/03/23 03:33:12;;;;;;;233.60;145.80;;;;;;;-1.64;81.19;100567.27;104936;1268;61371;-72
2022/03/23 03:35:39;;;;;;;222.90;142.50;;;;;;;-1.71;81.02;100562.67;104973;1268;61390;-71
2022/03/23 03:38:07;;;;;;;211.10;137.50;;;;;;;-1.81;80.77;100562.60;105246;1268;61253;-71
2022/03/23 03:40:34;;;;;;;220.50;139.20;;;;;;;-1.93;80.62;100560.75;105231;1268;72017;-70
2022/03/23 03:43:00;;;;;;;218.80;141.70;;;;;;;-2.04;80.51;100558.05;105195;1268;62435;-71
2022/03/23 03:45:27;;;;;;;213.90;135.80;;;;;;;-2.13;80.62;100558.65;105142;1268;61264;-72
2022/03/23 03:47:53;;;;;;;215.40;136.40;;;;;;;-2.18;80.87;100562.61;105276;1268;61242;-72
2022/03/23 03:50:19;;;;;;;226.60;141.60;;;;;;;-2.17;81.46;100565.73;105326;1268;61272;-70
2022/03/23 03:52:46;;;;;;;214.20;136.70;;;;;;;-2.14;81.70;100566.65;104953;1268;61296;-71
2022/03/23 03:55:13;;;;;;;217.40;138.40;;;;;;;-2.13;81.79;100566.66;105010;1268;61368;-71
2022/03/23 03:57:39;;;;;;;208.80;134.90;;;;;;;-2.09;81.96;100567.91;105287;1268;61415;-70
2022/03/23 04:00:06;;;;;;;198.90;132.10;;;;;;;-2.07;81.78;100567.25;104917;1268;61348;-70
2022/03/23 04:02:33;;;;;;;226.40;144.70;;;;;;;-2.03;81.82;100563.44;104900;1268;69846;-69
2022/03/23 04:04:59;;;;;;;232.40;148.90;;;;;;;-2.01;81.99;100555.46;104889;1268;61259;-70
2022/03/23 04:07:25;;;;;;;231.00;141.90;;;;;;;-1.98;82.26;100553.21;105026;1268;61301;-70
2022/03/23 04:09:52;;;;;;;222.30;142.20;;;;;;;-1.95;82.67;100554.30;104367;1268;1002982;-72
2022/03/23 04:12:19;;;;;;;218.30;139.40;;;;;;;-1.97;82.19;100557.41;104927;1268;61248;-71
2022/03/23 04:14:46;;;;;;;217.50;144.60;;;;;;;-2.04;81.70;100559.27;104956;1268;61251;-69
2022/03/23 04:17:12;;;;;;;221.20;143.00;;;;;;;-2.11;81.87;100561.28;104908;1268;74437;-68
2022/03/23 04:19:38;;;;;;;241.00;145.10;;;;;;;-2.19;81.96;100559.80;104950;1268;61259;-69
2022/03/23 04:22:05;;;;;;;233.50;149.00;;;;;;;-2.27;82.05;100556.59;104664;1268;61390;-71
2022/03/23 04:24:32;;;;;;;220.40;143.60;;;;;;;-2.32;82.11;100557.94;105302;1268;61367;-70
2022/03/23 04:26:59;;;;;;;226.20;143.90;;;;;;;-2.35;82.29;100565.21;104970;1268;70440;-69
2022/03/23 04:29:26;;;;;;;215.80;136.70;;;;;;;-2.36;82.56;100559.98;104982;1268;74411;-71
2022/03/23 04:31:53;;;;;;;204.30;134.80;;;;;;;-2.37;82.88;100555.62;104869;1271;61387;-69
2022/03/23 04:34:19;;;;;;;226.00;141.90;;;;;;;-2.35;83.31;100552.68;105257;1267;62018;-70
2022/03/23 04:36:46;;;;;;;199.40;128.70;;;;;;;-2.30;83.12;100553.60;104956;1268;76540;-70
2022/03/23 04:39:12;;;;;;;189.60;124.40;;;;;;;-2.28;83.19;100550.83;105000;1268;61352;-70
2022/03/23 04:41:39;;;;;;;172.50;114.40;;;;;;;-2.23;83.41;100543.57;105021;1268;61293;-69
2022/03/23 04:44:05;;;;;;;174.60;119.90;;;;;;;-2.15;83.96;100542.09;105021;1268;61507;-70
2022/03/23 04:46:32;;;;;;;176.50;114.50;;;;;;;-2.04;84.31;100542.20;105174;1268;61325;-70
2022/03/23 04:48:58;;;;;;;161.90;111.40;;;;;;;-1.92;84.35;100543.52;105063;1268;61259;-70
2022/03/23 04:51:24;;;;;;;181.90;124.20;;;;;;;-1.84;84.47;100540.98;105433;1268;61242;-70
2022/03/23 04:53:51;;;;;;;186.40;120.60;;;;;;;-1.77;84.17;100539.98;105002;1268;61276;-69
2022/03/23 04:56:17;;;;;;;174.70;116.70;;;;;;;-1.75;84.30;100539.13;105237;1268;61499;-71
2022/03/23 04:58:44;;;;;;;190.30;126.20;;;;;;;-1.70;84.98;100538.48;105230;1268;61380;-69
2022/03/23 05:01:10;;;;;;;184.60;125.60;;;;;;;-1.64;84.42;100542.52;105120;1268;61354;-71
2022/03/23 05:03:36;;;;;;;200.50;126.10;;;;;;;-1.51;83.79;100539.30;105333;1268;61293;-70
2022/03/23 05:06:03;;;;;;;177.20;124.00;;;;;;;-1.13;83.28;100537.10;105060;1268;61357;-70
2022/03/23 05:08:29;;;;;;;176.20;118.20;;;;;;;-0.74;82.62;100535.88;105004;1268;61349;-70
2022/03/23 05:10:56;;;;;;;165.30;110.80;;;;;;;-0.42;82.07;100540.87;104726;1268;61388;-69
2022/03/23 05:13:23;;;;;;;155.40;112.80;;;;;;;-0.08;81.37;100540.41;104976;1268;61271;-71
2022/03/23 05:15:50;;;;;;;159.30;112.60;;;;;;;0.23;80.88;100536.92;105061;1268;61377;-70
2022/03/23 05:18:17;;;;;;;168.30;117.40;;;;;;;0.50;80.41;100537.61;104927;1268;61348;-70
2022/03/23 05:20:43;;;;;;;168.50;120.30;;;;;;;0.75;80.02;100542.48;104681;1268;61346;-71
2022/03/23 05:23:10;;;;;;;154.90;116.10;;;;;;;0.85;79.52;100544.02;105234;1268;61272;-72
2022/03/23 05:25:36;;;;;;;158.80;117.90;;;;;;;1.03;79.34;100542.23;105220;1268;61293;-70
2022/03/23 05:28:08;;;;;;;153.60;113.00;;;;;;;1.21;79.03;100539.36;104990;1268;69606;-68
2022/03/23 05:30:35;;;;;;;153.50;112.90;;;;;;;1.36;78.68;100543.14;104789;1271;74375;-70
2022/03/23 05:33:02;;;;;;;159.60;115.50;;;;;;;1.56;78.51;100544.09;104925;1268;61385;-69
2022/03/23 05:35:29;;;;;;;166.00;123.90;;;;;;;1.67;77.86;100539.81;104893;1271;61371;-69
2022/03/23 05:37:56;;;;;;;179.40;130.40;;;;;;;1.74;77.69;100533.48;104946;1268;76334;-69
2022/03/23 05:40:23;;;;;;;180.00;130.20;;;;;;;1.86;77.43;100531.14;104976;1268;69387;-72
2022/03/23 05:42:50;;;;;;;182.80;134.40;;;;;;;2.00;76.80;100528.41;105267;1268;73878;-73
2022/03/23 05:45:17;;;;;;;174.40;131.00;;;;;;;2.13;76.45;100524.96;105257;1268;61297;-71
2022/03/23 05:47:43;;;;;;;182.10;136.50;;;;;;;2.24;75.91;100526.64;104942;1268;61239;-70
2022/03/23 05:50:10;;;;;;;181.20;134.70;;;;;;;2.32;75.61;100526.92;104971;1268;61386;-71
2022/03/23 05:52:39;;;;;;;178.40;135.70;;;;;;;2.40;75.40;100530.36;105351;1268;70209;-70
2022/03/23 05:55:07;;;;;;;171.70;132.10;;;;;;;2.56;74.98;100531.61;105227;1268;74434;-70
2022/03/23 05:57:35;;;;;;;169.50;129.90;;;;;;;2.65;74.73;100528.54;105093;1268;61399;-71
2022/03/23 06:00:03;;;;;;;171.90;130.80;;;;;;;2.60;75.12;100530.16;105067;1265;61950;-70
2022/03/23 06:02:29;;;;;;;182.80;131.80;;;;;;;2.67;75.60;100524.66;105438;1268;76380;-70
2022/03/23 06:04:57;;;;;;;177.60;132.80;;;;;;;2.65;75.21;100528.02;105444;1268;68429;-70
2022/03/23 06:07:23;;;;;;;179.20;134.20;;;;;;;2.61;75.24;100524.55;105115;1268;73936;-69
2022/03/23 06:09:50;;;;;;;185.60;138.30;;;;;;;2.51;75.14;100524.46;105055;1268;61432;-70
2022/03/23 06:12:17;;;;;;;196.30;139.80;;;;;;;2.48;75.22;100526.61;104955;1268;61255;-70
2022/03/23 06:14:44;;;;;;;176.50;133.20;;;;;;;2.47;75.33;100529.07;105300;1268;74256;-69
2022/03/23 06:17:10;;;;;;;171.80;132.00;;;;;;;2.50;75.49;100527.29;105051;1268;70301;-70
2022/03/23 06:19:37;;;;;;;181.40;136.70;;;;;;;2.53;75.45;100523.23;104963;1268;61329;-70
2022/03/23 06:22:05;;;;;;;183.20;141.20;;;;;;;2.56;75.30;100524.07;104940;1268;61281;-70
2022/03/23 06:24:31;;;;;;;186.60;138.60;;;;;;;2.65;75.17;100523.98;105259;1268;61220;-71
2022/03/23 06:26:58;;;;;;;173.20;129.20;;;;;;;2.70;75.16;100523.05;105283;1268;61339;-69
2022/03/23 06:29:24;;;;;;;179.50;129.20;;;;;;;2.72;75.32;100523.38;105286;1268;61321;-71
2022/03/23 06:31:51;;;;;;;179.50;129.00;;;;;;;2.75;75.47;100518.95;105085;1268;61313;-71
2022/03/23 06:34:17;;;;;;;166.00;123.00;;;;;;;2.79;75.53;100518.04;105136;1268;61344;-72
2022/03/23 06:36:43;;;;;;;156.40;118.20;;;;;;;2.82;75.63;100519.94;105276;1268;61282;-71
2022/03/23 06:39:10;;;;;;;141.70;106.80;;;;;;;2.86;75.81;100522.70;105257;1268;61359;-72
2022/03/23 06:41:36;;;;;;;135.90;99.10;;;;;;;2.94;75.94;100524.02;105243;1271;61365;-72
2022/03/23 06:44:05;;;;;;;140.50;99.50;;;;;;;3.05;76.11;100521.79;104899;1268;61287;-71
2022/03/23 06:46:31;;;;;;;137.40;101.70;;;;;;;3.19;76.16;100520.40;105437;1269;61355;-73
2022/03/23 06:48:57;;;;;;;131.60;100.30;;;;;;;3.34;76.32;100515.28;105227;1271;61281;-70
2022/03/23 06:51:24;;;;;;;124.70;97.30;;;;;;;3.51;76.35;100518.75;105088;1270;61280;-70
2022/03/23 06:53:50;;;;;;;124.00;91.20;;;;;;;3.67;76.50;100513.09;105216;1269;61351;-72
2022/03/23 06:56:17;;;;;;;114.50;87.90;;;;;;;3.83;76.24;100515.48;105113;1268;61319;-70
2022/03/23 06:58:43;;;;;;;118.30;86.00;;;;;;;3.96;75.97;100513.54;104919;1271;61304;-71
2022/03/23 07:01:10;;;;;;;117.00;84.80;;;;;;;4.07;75.94;100515.29;104899;1271;61297;-71
2022/03/23 07:03:36;;;;;;;97.30;72.70;;;;;;;4.19;75.68;100516.50;104901;1271;61372;-71
2022/03/23 07:06:03;;;;;;;108.60;78.60;;;;;;;4.29;75.15;100516.86;104866;1268;61608;-70
2022/03/23 07:11:14;;;;;;;100.60;74.80;;;;;;;4.52;74.59;100515.77;104923;1270;61262;-70
2022/03/23 07:13:41;;;;;;;107.70;77.40;;;;;;;4.64;74.32;100517.67;105041;1268;61172;-71
2022/03/23 07:16:07;;;;;;;99.70;71.80;;;;;;;4.77;74.05;100523.59;104910;1271;62346;-70
2022/03/23 07:18:34;;;;;;;98.40;72.80;;;;;;;4.88;73.49;100526.02;104928;1268;61266;-71
2022/03/23 07:21:02;;;;;;;98.80;71.70;;;;;;;4.98;73.21;100521.42;105120;1271;61361;-72
2022/03/23 07:23:29;;;;;;;95.80;72.70;;;;;;;5.09;72.91;100513.98;105034;1272;61394;-73
2022/03/23 07:25:55;;;;;;;89.20;63.30;;;;;;;5.22;72.45;100519.01;105102;1271;61355;-72
2022/03/23 07:28:21;;;;;;;87.60;59.40;;;;;;;5.34;71.59;100517.70;105278;1268;61387;-70
2022/03/23 07:30:48;;;;;;;85.90;61.80;;;;;;;5.47;71.12;100516.54;105127;1271;61419;-72
2022/03/23 07:33:14;;;;;;;86.50;61.90;;;;;;;5.60;70.62;100516.23;105238;1271;61343;-71
2022/03/23 07:35:41;;;;;;;85.10;61.00;;;;;;;5.74;70.06;100511.37;105221;1271;61394;-70
2022/03/23 07:38:07;;;;;;;86.10;62.90;;;;;;;5.87;69.78;100510.70;105281;1269;61294;-71
2022/03/23 07:40:36;;;;;;;83.10;59.20;;;;;;;5.99;69.30;100511.67;104917;1268;61384;-71
2022/03/23 07:43:04;;;;;;;84.40;61.20;;;;;;;6.13;69.24;100506.06;105156;1268;70335;-72
2022/03/23 07:45:30;;;;;;;92.20;65.80;;;;;;;6.27;68.79;100509.63;105292;1268;74484;-71
2022/03/23 07:47:57;;;;;;;92.80;64.80;;;;;;;6.38;68.36;100510.39;105337;1268;61244;-71
2022/03/23 07:50:23;;;;;;;92.00;63.80;;;;;;;6.54;68.39;100508.21;105274;1268;61259;-71
2022/03/23 07:52:50;;;;;;;87.50;62.40;;;;;;;6.68;67.99;100504.84;105264;1268;61255;-70
2022/03/23 07:55:17;;;;;;;89.00;64.10;;;;;;;6.81;67.44;100501.84;105170;1268;61464;-72
2022/03/23 07:57:44;;;;;;;90.50;64.40;;;;;;;6.91;66.98;100502.80;105302;1268;74498;-73
2022/03/23 08:00:12;;;;;;;84.00;62.30;;;;;;;7.02;66.52;100497.73;105311;1267;61342;-72
2022/03/23 08:02:40;;;;;;;86.40;65.60;;;;;;;7.11;66.23;100495.33;105033;1268;61189;-72
2022/03/23 08:05:08;;;;;;;87.40;64.20;;;;;;;7.23;65.76;100498.34;105381;1268;76311;-71
2022/03/23 08:07:34;;;;;;;93.30;65.20;;;;;;;7.35;65.33;100497.65;105302;1268;70460;-72
2022/03/23 08:10:01;;;;;;;90.20;64.50;;;;;;;7.47;65.02;100499.21;105221;1268;61271;-71
2022/03/23 08:12:27;;;;;;;95.00;67.70;;;;;;;7.62;64.61;100500.03;105106;1268;61390;-72
2022/03/23 08:14:54;;;;;;;82.40;60.70;;;;;;;7.74;64.03;100493.81;105285;1268;60079;-71
2022/03/23 08:17:20;;;;;;;81.20;60.80;;;;;;;7.85;63.65;100492.06;105328;1268;61253;-72
2022/03/23 08:20:32;;;;;;;72.20;52.40;;;;;;;7.96;62.62;100495.61;105256;1268;61184;-70
2022/03/23 08:22:37;;;;;;;78.50;55.00;;;;;;;8.03;61.44;100498.19;105298;1268;74362;-70
2022/03/23 08:25:04;;;;;;;76.30;56.20;;;;;;;8.09;61.32;100497.84;105301;1268;61303;-71
2022/03/23 08:27:30;;;;;;;69.40;49.80;;;;;;;8.17;61.00;100494.02;105063;1268;61371;-71
2022/03/23 08:29:57;;;;;;;71.10;52.40;;;;;;;8.26;59.95;100489.66;105320;1268;76302;-70
2022/03/23 08:32:26;;;;;;;76.50;52.90;;;;;;;8.34;59.38;100487.07;105145;1268;61272;-71
2022/03/23 08:34:52;;;;;;;68.90;48.70;;;;;;;8.45;59.35;100481.79;104925;1268;73533;-72
2022/03/23 08:37:19;;;;;;;72.20;51.20;;;;;;;8.58;59.08;100489.50;105022;1268;61357;-72
2022/03/23 08:39:45;;;;;;;65.50;47.40;;;;;;;8.70;58.93;100484.46;105292;1268;61249;-70
2022/03/23 08:42:12;;;;;;;60.70;44.90;;;;;;;8.80;58.47;100483.77;105323;1268;61395;-72
2022/03/23 08:44:40;;;;;;;64.40;47.00;;;;;;;8.91;57.36;100480.33;105333;1268;70363;-72
2022/03/23 08:47:08;;;;;;;61.40;44.00;;;;;;;9.02;57.46;100475.86;105340;1268;73533;-68
2022/03/23 08:49:35;;;;;;;61.60;45.30;;;;;;;9.18;57.25;100472.63;105422;1267;61363;-70
2022/03/23 08:52:02;;;;;;;63.00;45.60;;;;;;;9.31;56.82;100472.66;105252;1268;61271;-72
2022/03/23 08:54:28;;;;;;;61.30;43.60;;;;;;;9.40;56.10;100472.29;105081;1268;75229;-73
2022/03/23 08:56:55;;;;;;;57.70;41.90;;;;;;;9.54;55.77;100470.89;104873;1268;61393;-70
2022/03/23 08:59:21;;;;;;;64.90;42.80;;;;;;;9.69;55.03;100467.64;104911;1268;61278;-71
2022/03/23 09:01:48;;;;;;;64.50;43.80;;;;;;;9.84;54.81;100461.55;104885;1268;61410;-71
2022/03/23 09:04:15;;;;;;;60.30;43.20;;;;;;;10.02;55.03;100457.61;104906;1268;61381;-71
2022/03/23 09:06:43;;;;;;;54.60;40.80;;;;;;;10.20;54.77;100454.53;104637;1268;73841;-71
2022/03/23 09:09:09;;;;;;;54.40;38.50;;;;;;;10.38;54.42;100447.76;104888;1268;69418;-71
2022/03/23 09:11:36;;;;;;;53.50;38.50;;;;;;;10.55;53.16;100446.14;104953;1268;73901;-71
2022/03/23 09:14:03;;;;;;;53.90;38.50;;;;;;;10.69;52.15;100443.05;104967;1268;61352;-71
2022/03/23 09:16:29;;;;;;;47.50;34.90;;;;;;;10.85;52.38;100437.36;105070;1268;61215;-71
2022/03/23 09:18:56;;;;;;;48.30;34.40;;;;;;;10.99;51.55;100432.27;104592;1271;61392;-70
2022/03/23 09:21:23;;;;;;;48.70;35.50;;;;;;;11.13;51.18;100431.29;104897;1268;61292;-71
2022/03/23 09:23:50;;;;;;;48.60;36.10;;;;;;;11.31;50.88;100430.98;104861;1268;74473;-72
2022/03/23 09:26:16;;;;;;;43.50;31.00;;;;;;;11.51;50.28;100425.42;105304;1268;61484;-70
2022/03/23 09:28:43;;;;;;;47.10;33.40;;;;;;;11.68;49.44;100426.36;104907;1268;60112;-70
2022/03/23 09:31:09;;;;;;;41.80;31.60;;;;;;;11.85;49.34;100423.60;104896;1268;61316;-72
2022/03/23 09:33:36;;;;;;;45.00;32.50;;;;;;;11.98;48.39;100414.77;105282;1268;70158;-70
2022/03/23 09:36:03;;;;;;;43.80;33.10;;;;;;;12.14;48.02;100412.38;104889;1267;61384;-70
2022/03/23 09:38:29;;;;;;;42.30;30.70;;;;;;;12.28;46.50;100407.73;104879;1268;61807;-71
2022/03/23 09:40:56;;;;;;;44.80;32.30;;;;;;;12.45;47.52;100408.28;105324;1268;61998;-70
2022/03/23 09:43:24;;;;;;;44.20;30.80;;;;;;;12.65;47.55;100405.64;104806;1271;76087;-73
2022/03/23 09:45:51;;;;;;;38.80;30.80;;;;;;;12.89;46.89;100400.95;105287;1268;69350;-71
2022/03/23 09:48:25;;;;;;;46.80;33.40;;;;;;;13.07;46.51;100402.48;104963;1268;73253;-72
2022/03/23 09:50:54;;;;;;;43.10;32.00;;;;;;;13.19;45.61;100394.68;104847;1268;61322;-71
2022/03/23 09:53:23;;;;;;;43.50;32.60;;;;;;;13.32;45.86;100390.09;104953;1268;61818;-70
2022/03/23 09:55:51;;;;;;;45.60;33.20;;;;;;;13.47;45.87;100383.87;105083;1268;75489;-70
2022/03/23 09:58:18;;;;;;;47.20;33.60;;;;;;;13.60;45.44;100380.24;105136;1268;69457;-71
2022/03/23 10:00:45;;;;;;;41.90;28.90;;;;;;;13.74;44.84;100373.73;104727;1268;74008;-70
2022/03/23 10:03:11;;;;;;;35.60;26.40;;;;;;;13.90;44.38;100371.77;104885;1268;61287;-71
2022/03/23 10:06:08;;;;;;;35.80;26.60;;;;;;;14.03;43.24;100372.41;104889;1268;61354;-71
2022/03/23 10:09:12;;;;;;;34.80;25.60;;;;;;;14.19;42.62;100366.98;104918;1268;76586;-70
2022/03/23 10:12:17;;;;;;;35.30;26.60;;;;;;;14.43;42.02;100363.61;104878;1268;70313;-70
2022/03/23 10:15:21;;;;;;;35.30;26.10;;;;;;;14.56;41.55;100358.36;104874;1268;72797;-72
2022/03/23 10:18:17;;;;;;;33.20;26.10;;;;;;;14.75;41.55;100355.94;104921;1268;61327;-72
2022/03/23 10:20:44;;;;;;;36.60;25.40;;;;;;;14.92;40.65;100352.86;104958;1268;62134;-71
2022/03/23 10:23:11;;;;;;;36.50;26.60;;;;;;;15.04;40.75;100350.64;105272;1268;61184;-71
2022/03/23 10:25:40;;;;;;;33.50;25.00;;;;;;;15.15;39.93;100345.16;105320;1268;70545;-71
2022/03/23 10:28:14;;;;;;;35.80;24.40;;;;;;;15.26;39.12;100341.95;105338;1268;74436;-71
2022/03/23 10:30:43;;;;;;;23.90;18.60;;;;;;;15.35;38.33;100344.38;105462;1268;61246;-71
2022/03/23 10:33:22;;;;;;;27.10;19.30;;;;;;;15.49;36.99;100337.77;105325;1268;61163;-70
2022/03/23 10:35:49;;;;;;;27.00;20.30;;;;;;;15.72;37.21;100329.98;104980;1268;75208;-69
2022/03/23 10:38:18;;;;;;;23.10;18.50;;;;;;;15.86;37.34;100329.92;105059;1268;69539;-70
2022/03/23 10:40:48;;;;;;;24.00;17.80;;;;;;;15.96;36.67;100327.09;104918;1268;74476;-71
2022/03/23 10:43:19;;;;;;;24.50;20.70;;;;;;;16.13;36.42;100323.77;104985;1268;61265;-70
2022/03/23 10:45:47;;;;;;;32.10;22.20;;;;;;;16.21;36.23;100323.21;104883;1268;61278;-70
2022/03/23 10:48:19;;;;;;;26.10;18.40;;;;;;;16.25;35.89;100319.71;104577;1271;76374;-71
2022/03/23 10:50:54;;;;;;;26.80;19.40;;;;;;;16.32;35.75;100313.37;105115;1268;69633;-69
2022/03/23 10:53:41;;;;;;;43.90;26.70;;;;;;;16.38;35.78;100309.86;105277;1268;74424;-71
2022/03/23 10:56:08;;;;;;;28.10;20.00;;;;;;;16.51;35.75;100306.46;105170;1268;61144;-70
2022/03/23 10:58:35;;;;;;;25.50;19.90;;;;;;;16.64;35.02;100303.58;104994;1268;61126;-71
2022/03/23 11:01:05;;;;;;;20.00;14.60;;;;;;;16.76;34.89;100299.85;105224;1268;77222;-71
2022/03/23 11:03:39;;;;;;;26.90;19.30;;;;;;;16.85;33.81;100295.08;105176;1268;70412;-70
2022/03/23 11:06:08;;;;;;;30.90;21.00;;;;;;;16.94;33.86;100284.19;105298;1268;73199;-71
2022/03/23 11:08:35;;;;;;;28.50;22.00;;;;;;;17.03;34.49;100283.55;105251;1268;61394;-70
2022/03/23 11:16:45;;;;;;;29.80;21.80;;;;;;;17.15;32.80;100265.44;104921;1268;69466;-71
2022/03/23 11:19:11;;;;;;;27.50;20.10;;;;;;;17.22;33.27;100265.60;104941;1268;61384;-71
2022/03/23 11:22:11;;;;;;;24.00;18.60;;;;;;;17.31;31.99;100261.87;105027;1268;61476;-69